createdAt,value
2022-08-28T00:00:19.439Z,44.71
2022-08-28T00:01:21.610Z,45.02
2022-08-28T00:02:24.135Z,45.04
2022-08-28T00:03:26.313Z,44.54
2022-08-28T00:04:28.620Z,45.03
2022-08-28T00:05:32.198Z,44.54
2022-08-28T00:06:34.449Z,44.12
2022-08-28T00:07:40.820Z,44.43
2022-08-28T00:08:44.523Z,44.63
2022-08-28T00:09:46.721Z,44.38
2022-08-28T00:10:48.837Z,44.44
2022-08-28T00:11:51.075Z,44.56
2022-08-28T00:12:55.948Z,44.64
2022-08-28T00:13:58.838Z,44.20
2022-08-28T00:15:01.020Z,44.48
2022-08-28T00:16:03.328Z,44.05
2022-08-28T00:17:05.574Z,44.28
2022-08-28T00:18:08.497Z,44.50
2022-08-28T00:19:11.266Z,44.45
2022-08-28T00:20:15.208Z,44.42
2022-08-28T00:21:17.369Z,44.23
2022-08-28T00:22:19.547Z,44.09
2022-08-28T00:23:22.095Z,44.55
2022-08-28T00:24:24.187Z,44.61
2022-08-28T00:25:28.167Z,44.45
2022-08-28T00:26:49.297Z,44.44
2022-08-28T00:27:57.628Z,44.02
2022-08-28T00:29:00.541Z,43.97
2022-08-28T00:30:02.654Z,44.17
2022-08-28T00:31:05.434Z,44.08
2022-08-28T00:32:10.161Z,43.95
2022-08-28T00:33:20.115Z,43.88
2022-08-28T00:34:32.051Z,44.37
2022-08-28T00:35:35.383Z,44.42
2022-08-28T00:36:38.840Z,43.96
2022-08-28T00:37:41.142Z,44.08
2022-08-28T00:38:46.115Z,43.55
2022-08-28T00:39:49.450Z,44.01
2022-08-28T00:40:54.131Z,43.84
2022-08-28T00:41:57.991Z,44.11
2022-08-28T00:43:05.702Z,43.83
2022-08-28T00:44:14.058Z,44.98
2022-08-28T00:45:18.556Z,45.06
2022-08-28T00:46:23.919Z,45.67
2022-08-28T00:47:26.856Z,45.68
2022-08-28T00:48:28.887Z,45.45
2022-08-28T00:49:36.182Z,45.53
2022-08-28T00:51:00.770Z,46.14
2022-08-28T00:52:08.480Z,46.14
2022-08-28T00:53:14.009Z,46.32
2022-08-28T00:54:16.211Z,45.94
2022-08-28T00:55:22.591Z,45.35
2022-08-28T00:56:25.691Z,45.71
2022-08-28T00:57:49.870Z,45.42
2022-08-28T00:58:53.636Z,45.82
2022-08-28T00:59:55.779Z,46.49
2022-08-28T01:00:57.867Z,46.34
2022-08-28T01:02:00.506Z,46.94
2022-08-28T01:03:05.906Z,46.00
2022-08-28T01:04:09.111Z,45.93
2022-08-28T01:05:11.920Z,46.30
2022-08-28T01:06:16.117Z,46.61
2022-08-28T01:07:18.300Z,46.68
2022-08-28T01:08:20.684Z,46.44
2022-08-28T01:09:29.510Z,46.67
2022-08-28T01:10:34.909Z,47.07
2022-08-28T01:11:37.064Z,47.03
2022-08-28T01:12:39.445Z,47.01
2022-08-28T01:13:46.805Z,46.00
2022-08-28T01:14:55.139Z,46.97
2022-08-28T01:15:58.448Z,46.59
2022-08-28T01:17:00.906Z,46.37
2022-08-28T01:18:10.441Z,46.73
2022-08-28T01:19:21.605Z,47.20
2022-08-28T01:20:29.060Z,47.51
2022-08-28T01:21:44.793Z,47.81
2022-08-28T01:23:24.703Z,47.43
2022-08-28T01:24:27.734Z,47.38
2022-08-28T01:25:34.002Z,47.00
2022-08-28T01:26:38.900Z,47.70
2022-08-28T01:27:44.311Z,48.14
2022-08-28T01:28:47.107Z,47.78
2022-08-28T01:29:50.363Z,47.64
2022-08-28T01:30:52.398Z,47.84
2022-08-28T01:31:54.889Z,47.72
2022-08-28T01:32:57.190Z,47.75
2022-08-28T01:33:59.523Z,47.76
2022-08-28T01:35:03.003Z,47.69
2022-08-28T01:36:05.573Z,47.52
2022-08-28T01:37:07.641Z,47.73
2022-08-28T01:38:09.690Z,47.66
2022-08-28T01:39:18.048Z,47.93
2022-08-28T01:40:41.502Z,47.82
2022-08-28T01:41:47.073Z,47.82
2022-08-28T01:42:49.760Z,47.74
2022-08-28T01:43:53.979Z,48.61
2022-08-28T01:44:56.556Z,48.23
2022-08-28T01:46:02.359Z,48.47
2022-08-28T01:47:04.748Z,48.93
2022-08-28T01:48:07.890Z,48.93
2022-08-28T01:49:12.147Z,49.00
2022-08-28T01:50:19.017Z,48.95
2022-08-28T01:51:24.470Z,49.04
2022-08-28T01:52:26.775Z,49.40
2022-08-28T01:53:32.573Z,50.08
2022-08-28T01:54:35.283Z,49.65
2022-08-28T01:55:38.214Z,49.60
2022-08-28T01:56:44.580Z,49.91
2022-08-28T01:57:53.976Z,49.93
2022-08-28T01:58:56.057Z,49.82
2022-08-28T01:59:58.281Z,49.97
2022-08-28T02:01:00.530Z,50.25
2022-08-28T02:02:02.675Z,50.58
2022-08-28T02:03:05.431Z,50.62
2022-08-28T02:04:07.592Z,51.01
2022-08-28T02:05:10.712Z,51.31
2022-08-28T02:06:13.709Z,50.86
2022-08-28T02:07:17.195Z,51.22
2022-08-28T02:08:20.494Z,50.82
2022-08-28T02:09:22.523Z,50.96
2022-08-28T02:10:26.971Z,50.82
2022-08-28T02:11:30.693Z,50.55
2022-08-28T02:12:32.979Z,50.67
2022-08-28T02:13:38.446Z,50.57
2022-08-28T02:14:40.493Z,50.23
2022-08-28T02:15:43.343Z,50.05
2022-08-28T02:16:45.716Z,50.46
2022-08-28T02:17:47.984Z,50.45
2022-08-28T02:18:50.193Z,50.25
2022-08-28T02:19:52.638Z,50.68
2022-08-28T02:20:54.731Z,50.40
2022-08-28T02:21:57.036Z,50.26
2022-08-28T02:22:59.697Z,50.42
2022-08-28T02:24:02.138Z,50.26
2022-08-28T02:25:05.490Z,50.52
2022-08-28T02:26:08.771Z,50.34
2022-08-28T02:27:11.138Z,50.53
2022-08-28T02:28:13.726Z,50.93
2022-08-28T02:29:16.108Z,50.96
2022-08-28T02:30:19.997Z,51.33
2022-08-28T02:31:22.389Z,51.15
2022-08-28T02:32:25.923Z,51.13
2022-08-28T02:33:28.121Z,51.07
2022-08-28T02:34:30.228Z,51.11
2022-08-28T02:35:32.595Z,51.33
2022-08-28T02:36:34.632Z,51.33
2022-08-28T02:37:36.917Z,51.23
2022-08-28T02:38:39.371Z,51.61
2022-08-28T02:39:41.529Z,51.56
2022-08-28T02:40:44.405Z,51.09
2022-08-28T02:41:46.564Z,51.18
2022-08-28T02:42:48.687Z,51.38
2022-08-28T02:43:50.748Z,51.31
2022-08-28T02:44:53.321Z,51.37
2022-08-28T02:45:55.612Z,51.26
2022-08-28T02:46:58.216Z,51.23
2022-08-28T02:48:02.111Z,51.37
2022-08-28T02:49:04.263Z,51.34
2022-08-28T02:50:09.383Z,51.12
2022-08-28T02:51:14.604Z,51.45
2022-08-28T02:52:16.837Z,51.40
2022-08-28T02:53:19.037Z,51.14
2022-08-28T02:54:21.978Z,51.31
2022-08-28T02:55:25.657Z,51.31
2022-08-28T02:56:29.043Z,51.28
2022-08-28T02:57:31.183Z,51.13
2022-08-28T02:58:35.575Z,51.29
2022-08-28T02:59:38.584Z,51.63
2022-08-28T03:00:41.575Z,51.32
2022-08-28T03:01:43.623Z,51.16
2022-08-28T03:02:50.735Z,51.36
2022-08-28T03:03:52.863Z,51.60
2022-08-28T03:04:59.312Z,51.63
2022-08-28T03:06:01.581Z,51.55
2022-08-28T03:07:04.809Z,51.55
2022-08-28T03:08:09.452Z,51.69
2022-08-28T03:09:11.582Z,51.72
2022-08-28T03:10:13.886Z,51.79
2022-08-28T03:11:16.087Z,51.83
2022-08-28T03:12:18.256Z,51.59
2022-08-28T03:13:26.503Z,51.84
2022-08-28T03:14:29.410Z,51.93
2022-08-28T03:15:31.760Z,52.07
2022-08-28T03:16:34.574Z,52.22
2022-08-28T03:17:37.494Z,52.50
2022-08-28T03:18:39.794Z,52.67
2022-08-28T03:19:42.114Z,52.60
2022-08-28T03:20:45.896Z,52.48
2022-08-28T03:21:48.378Z,52.65
2022-08-28T03:23:13.003Z,52.44
2022-08-28T03:24:15.737Z,53.01
2022-08-28T03:25:18.740Z,52.50
2022-08-28T03:26:21.324Z,52.80
2022-08-28T03:27:23.344Z,52.96
2022-08-28T03:28:27.788Z,53.12
2022-08-28T03:29:29.895Z,53.03
2022-08-28T03:30:32.051Z,53.12
2022-08-28T03:31:36.104Z,53.33
2022-08-28T03:32:40.472Z,53.15
2022-08-28T03:33:42.973Z,53.43
2022-08-28T03:34:45.252Z,53.53
2022-08-28T03:35:47.485Z,53.12
2022-08-28T03:36:50.048Z,53.52
2022-08-28T03:37:52.018Z,53.29
2022-08-28T03:38:56.335Z,53.96
2022-08-28T03:39:58.373Z,53.71
2022-08-28T03:41:02.709Z,53.40
2022-08-28T03:42:06.225Z,53.56
2022-08-28T03:43:14.711Z,53.74
2022-08-28T03:44:16.918Z,53.58
2022-08-28T03:45:19.132Z,54.10
2022-08-28T03:46:23.963Z,53.60
2022-08-28T03:47:29.688Z,53.88
2022-08-28T03:48:34.871Z,54.07
2022-08-28T03:49:36.995Z,54.27
2022-08-28T03:50:40.625Z,53.89
2022-08-28T03:51:44.319Z,53.75
2022-08-28T03:52:46.438Z,53.86
2022-08-28T03:53:48.587Z,53.87
2022-08-28T03:54:51.713Z,53.53
2022-08-28T03:55:54.603Z,53.30
2022-08-28T03:56:56.667Z,54.16
2022-08-28T03:57:58.710Z,53.73
2022-08-28T03:59:04.443Z,54.29
2022-08-28T04:00:10.679Z,53.87
2022-08-28T04:01:16.162Z,54.11
2022-08-28T04:02:21.725Z,54.26
2022-08-28T04:03:23.932Z,54.24
2022-08-28T04:04:25.994Z,53.82
2022-08-28T04:05:28.963Z,54.07
2022-08-28T04:06:31.387Z,54.13
2022-08-28T04:07:38.143Z,53.68
2022-08-28T04:08:44.539Z,54.18
2022-08-28T04:09:47.359Z,54.10
2022-08-28T04:10:50.494Z,53.91
2022-08-28T04:11:55.420Z,54.31
2022-08-28T04:12:57.637Z,53.79
2022-08-28T04:14:00.032Z,53.62
2022-08-28T04:15:03.164Z,53.73
2022-08-28T04:16:11.037Z,53.73
2022-08-28T04:17:13.440Z,53.65
2022-08-28T04:18:16.048Z,53.79
2022-08-28T04:19:18.291Z,53.66
2022-08-28T04:20:21.370Z,53.56
2022-08-28T04:21:26.227Z,53.51
2022-08-28T04:22:30.757Z,53.29
2022-08-28T04:23:40.257Z,53.34
2022-08-28T04:24:42.352Z,53.42
2022-08-28T04:25:44.458Z,53.92
2022-08-28T04:26:47.053Z,53.82
2022-08-28T04:27:51.756Z,53.75
2022-08-28T04:28:55.081Z,53.70
2022-08-28T04:29:58.436Z,57.88
2022-08-28T04:31:01.167Z,54.73
2022-08-28T04:32:04.054Z,53.55
2022-08-28T04:33:06.543Z,54.29
2022-08-28T04:34:29.639Z,54.04
2022-08-28T04:35:32.655Z,54.39
2022-08-28T04:36:35.944Z,54.43
2022-08-28T04:37:39.322Z,53.38
2022-08-28T04:38:44.042Z,53.01
2022-08-28T04:39:46.485Z,54.12
2022-08-28T04:40:49.542Z,53.31
2022-08-28T04:41:51.826Z,53.57
2022-08-28T04:42:54.063Z,53.21
2022-08-28T04:43:57.601Z,53.09
2022-08-28T04:45:00.511Z,53.61
2022-08-28T04:46:08.609Z,53.41
2022-08-28T04:47:11.432Z,53.29
2022-08-28T04:48:14.724Z,52.96
2022-08-28T04:49:17.565Z,53.14
2022-08-28T04:50:20.996Z,53.16
2022-08-28T04:51:23.264Z,53.19
2022-08-28T04:52:27.853Z,53.13
2022-08-28T04:53:29.895Z,52.77
2022-08-28T04:54:35.233Z,52.91
2022-08-28T04:55:54.760Z,52.98
2022-08-28T04:56:57.284Z,53.16
2022-08-28T04:57:59.590Z,53.57
2022-08-28T04:59:01.867Z,53.32
2022-08-28T05:00:07.336Z,53.28
2022-08-28T05:01:16.400Z,53.49
2022-08-28T05:02:18.526Z,53.53
2022-08-28T05:03:21.397Z,53.15
2022-08-28T05:04:24.003Z,52.95
2022-08-28T05:05:28.396Z,52.90
2022-08-28T05:06:33.335Z,52.90
2022-08-28T05:07:35.392Z,53.06
2022-08-28T05:08:37.485Z,53.06
2022-08-28T05:09:39.731Z,52.89
2022-08-28T05:10:43.118Z,52.39
2022-08-28T05:11:48.184Z,52.65
2022-08-28T05:12:50.783Z,52.64
2022-08-28T05:13:54.510Z,52.66
2022-08-28T05:14:56.698Z,52.42
2022-08-28T05:15:58.820Z,52.86
2022-08-28T05:17:01.171Z,52.56
2022-08-28T05:18:03.914Z,52.37
2022-08-28T05:19:07.065Z,52.12
2022-08-28T05:20:13.824Z,51.79
2022-08-28T05:21:22.957Z,51.73
2022-08-28T05:22:27.373Z,51.52
2022-08-28T05:23:30.828Z,51.62
2022-08-28T05:24:34.919Z,51.58
2022-08-28T05:25:44.074Z,51.54
2022-08-28T05:26:48.343Z,51.41
2022-08-28T05:27:55.223Z,50.74
2022-08-28T05:28:59.986Z,51.26
2022-08-28T05:30:03.222Z,50.89
2022-08-28T05:31:14.223Z,50.44
2022-08-28T05:32:19.270Z,51.02
2022-08-28T05:33:22.222Z,50.15
2022-08-28T05:34:24.313Z,50.60
2022-08-28T05:35:27.538Z,50.45
2022-08-28T05:36:33.344Z,49.87
2022-08-28T05:37:35.746Z,49.48
2022-08-28T05:38:39.953Z,49.54
2022-08-28T05:39:42.202Z,49.43
2022-08-28T05:40:47.428Z,49.87
2022-08-28T05:41:52.948Z,49.46
2022-08-28T05:42:56.473Z,48.91
2022-08-28T05:44:04.984Z,48.94
2022-08-28T05:45:09.700Z,48.45
2022-08-28T05:46:12.230Z,47.75
2022-08-28T05:47:15.492Z,48.00
2022-08-28T05:48:18.668Z,47.41
2022-08-28T05:49:20.787Z,47.30
2022-08-28T05:50:23.557Z,47.43
2022-08-28T05:51:26.891Z,47.33
2022-08-28T05:52:30.784Z,47.51
2022-08-28T05:53:39.075Z,47.18
2022-08-28T05:54:41.390Z,46.76
2022-08-28T05:55:44.684Z,46.51
2022-08-28T05:56:51.353Z,46.11
2022-08-28T05:57:53.478Z,45.67
2022-08-28T05:58:56.378Z,45.64
2022-08-28T05:59:58.607Z,45.21
2022-08-28T06:01:16.839Z,43.38
2022-08-28T06:02:19.891Z,40.54
2022-08-28T06:03:25.214Z,39.33
2022-08-28T06:04:28.557Z,39.14
2022-08-28T06:05:30.663Z,38.88
2022-08-28T06:06:38.524Z,37.96
2022-08-28T06:07:42.250Z,37.75
2022-08-28T06:08:58.048Z,37.08
2022-08-28T06:10:01.247Z,36.25
2022-08-28T06:11:05.517Z,36.01
2022-08-28T06:12:10.009Z,35.01
2022-08-28T06:13:14.330Z,34.20
2022-08-28T06:14:19.739Z,34.58
2022-08-28T06:15:22.390Z,33.88
2022-08-28T06:16:24.893Z,33.42
2022-08-28T06:17:27.082Z,32.19
2022-08-28T06:18:29.558Z,31.60
2022-08-28T06:19:37.212Z,32.73
2022-08-28T06:20:45.151Z,31.31
2022-08-28T06:21:48.693Z,31.52
2022-08-28T06:22:51.874Z,29.57
2022-08-28T06:23:54.604Z,29.04
2022-08-28T06:24:56.865Z,27.93
2022-08-28T06:25:59.732Z,27.52
2022-08-28T06:27:01.833Z,26.56
2022-08-28T06:28:04.119Z,26.62
2022-08-28T06:29:09.377Z,25.63
2022-08-28T06:30:12.772Z,26.62
2022-08-28T06:31:23.191Z,26.13
2022-08-28T06:32:27.638Z,28.24
2022-08-28T06:33:30.663Z,26.54
2022-08-28T06:34:32.856Z,26.11
2022-08-28T06:35:35.018Z,26.23
2022-08-28T06:36:41.993Z,26.19
2022-08-28T06:37:45.110Z,25.77
2022-08-28T06:38:47.285Z,26.71
2022-08-28T06:39:49.363Z,26.79
2022-08-28T06:40:55.345Z,27.29
2022-08-28T06:42:03.064Z,28.08
2022-08-28T06:43:05.503Z,29.14
2022-08-28T06:44:12.701Z,28.95
2022-08-28T06:45:15.265Z,29.38
2022-08-28T06:46:19.269Z,29.81
2022-08-28T06:47:23.785Z,30.29
2022-08-28T06:48:30.651Z,30.55
2022-08-28T06:49:32.802Z,31.77
2022-08-28T06:50:39.804Z,32.88
2022-08-28T06:52:11.646Z,33.38
2022-08-28T06:54:41.725Z,34.28
2022-08-28T06:56:01.316Z,34.90
2022-08-28T06:57:13.831Z,35.06
2022-08-28T06:58:17.088Z,35.44
2022-08-28T06:59:20.205Z,35.79
2022-08-28T07:00:22.655Z,35.61
2022-08-28T07:01:31.458Z,35.60
2022-08-28T07:02:34.194Z,35.55
2022-08-28T07:03:37.425Z,36.09
2022-08-28T07:04:54.433Z,36.30
2022-08-28T07:05:59.146Z,36.12
2022-08-28T07:07:01.674Z,36.33
2022-08-28T07:08:06.782Z,36.20
2022-08-28T07:09:14.520Z,36.73
2022-08-28T07:10:17.177Z,35.78
2022-08-28T07:11:27.760Z,35.66
2022-08-28T07:12:32.873Z,34.79
2022-08-28T07:13:42.416Z,33.11
2022-08-28T07:14:44.861Z,32.53
2022-08-28T07:15:47.169Z,31.83
2022-08-28T07:16:51.937Z,30.50
2022-08-28T07:17:54.152Z,29.14
2022-08-28T07:18:59.536Z,29.76
2022-08-28T07:20:03.740Z,29.03
2022-08-28T07:21:11.594Z,28.34
2022-08-28T07:22:14.871Z,28.17
2022-08-28T07:23:17.134Z,28.75
2022-08-28T07:24:19.564Z,29.09
2022-08-28T07:25:22.141Z,29.47
2022-08-28T07:26:26.333Z,29.39
2022-08-28T07:27:29.218Z,29.92
2022-08-28T07:28:31.707Z,30.24
2022-08-28T07:29:33.825Z,31.17
2022-08-28T07:30:36.182Z,31.99
2022-08-28T07:31:44.159Z,31.75
2022-08-28T07:32:49.443Z,31.40
2022-08-28T07:33:54.223Z,30.79
2022-08-28T07:34:57.324Z,30.45
2022-08-28T07:36:01.680Z,29.12
2022-08-28T07:37:04.704Z,28.04
2022-08-28T07:38:07.247Z,27.55
2022-08-28T07:39:11.261Z,27.83
2022-08-28T07:40:13.553Z,27.82
2022-08-28T07:41:28.390Z,27.50
2022-08-28T07:42:49.031Z,27.02
2022-08-28T07:44:10.795Z,28.17
2022-08-28T07:45:12.855Z,28.71
2022-08-28T07:46:15.262Z,28.18
2022-08-28T07:47:18.754Z,29.46
2022-08-28T07:48:21.355Z,30.41
2022-08-28T07:49:25.115Z,30.11
2022-08-28T07:50:27.407Z,29.80
2022-08-28T07:51:29.727Z,30.97
2022-08-28T07:52:31.940Z,31.17
2022-08-28T07:53:36.477Z,30.96
2022-08-28T07:54:40.825Z,31.09
2022-08-28T07:55:43.525Z,31.38
2022-08-28T07:56:48.134Z,32.70
2022-08-28T07:57:50.476Z,32.21
2022-08-28T07:59:04.928Z,32.28
2022-08-28T08:00:08.424Z,32.85
2022-08-28T08:01:13.492Z,33.60
2022-08-28T08:02:16.899Z,34.02
2022-08-28T08:03:21.395Z,33.36
2022-08-28T08:04:27.309Z,32.82
2022-08-28T08:05:29.691Z,32.91
2022-08-28T08:06:34.116Z,33.40
2022-08-28T08:07:41.899Z,33.37
2022-08-28T08:08:46.631Z,33.50
2022-08-28T08:09:48.924Z,33.27
2022-08-28T08:11:16.987Z,33.13
2022-08-28T08:12:21.121Z,33.23
2022-08-28T08:13:23.516Z,33.74
2022-08-28T08:14:25.865Z,33.65
2022-08-28T08:15:31.215Z,33.62
2022-08-28T08:16:36.546Z,33.73
2022-08-28T08:17:39.499Z,33.20
2022-08-28T08:18:42.616Z,33.56
2022-08-28T08:19:44.690Z,33.30
2022-08-28T08:20:46.858Z,33.38
2022-08-28T08:21:55.096Z,33.56
2022-08-28T08:22:57.555Z,33.61
2022-08-28T08:24:00.243Z,33.74
2022-08-28T08:25:05.135Z,33.21
2022-08-28T08:26:13.200Z,32.88
2022-08-28T08:27:15.349Z,32.53
2022-08-28T08:28:17.788Z,32.48
2022-08-28T08:29:20.841Z,30.69
2022-08-28T08:30:25.073Z,31.47
2022-08-28T08:33:10.324Z,31.03
2022-08-28T08:36:07.028Z,31.31
2022-08-28T08:37:09.919Z,31.19
2022-08-28T08:38:12.771Z,31.14
2022-08-28T08:39:17.243Z,31.29
2022-08-28T08:40:20.932Z,31.83
2022-08-28T08:41:26.810Z,31.76
2022-08-28T08:42:33.470Z,31.38
2022-08-28T08:43:54.579Z,30.74
2022-08-28T08:45:06.462Z,31.37
2022-08-28T08:46:10.126Z,31.38
2022-08-28T08:47:22.252Z,31.03
2022-08-28T08:48:34.237Z,30.95
2022-08-28T08:49:43.609Z,30.98
2022-08-28T08:50:45.963Z,30.50
2022-08-28T08:51:55.444Z,30.73
2022-08-28T08:53:45.269Z,30.10
2022-08-28T08:55:06.384Z,29.81
2022-08-28T08:56:15.917Z,29.58
2022-08-28T08:57:19.014Z,29.66
2022-08-28T08:58:36.464Z,29.56
2022-08-28T08:59:40.352Z,29.19
2022-08-28T09:01:01.192Z,29.07
2022-08-28T09:02:12.629Z,29.27
2022-08-28T09:03:22.580Z,28.38
2022-08-28T09:04:34.676Z,28.52
2022-08-28T09:05:58.735Z,29.42
2022-08-28T09:07:20.852Z,29.37
2022-08-28T09:08:32.692Z,29.46
2022-08-28T09:09:38.534Z,29.79
2022-08-28T09:10:48.695Z,29.75
2022-08-28T09:11:59.061Z,29.26
2022-08-28T09:13:13.565Z,28.48
2022-08-28T09:14:44.280Z,28.19
2022-08-28T09:15:50.728Z,28.79
2022-08-28T09:16:56.954Z,28.92
2022-08-28T09:18:08.238Z,28.83
2022-08-28T09:19:15.509Z,29.41
2022-08-28T09:20:25.888Z,29.38
2022-08-28T09:21:41.535Z,29.27
2022-08-28T09:24:01.208Z,29.17
2022-08-28T09:25:29.821Z,29.29
2022-08-28T09:26:31.957Z,29.37
2022-08-28T09:27:39.430Z,29.40
2022-08-28T09:28:42.593Z,29.29
2022-08-28T09:29:57.867Z,29.35
2022-08-28T09:31:15.868Z,29.17
2022-08-28T09:32:31.117Z,29.87
2022-08-28T09:33:45.010Z,28.56
2022-08-28T09:35:08.545Z,27.86
2022-08-28T09:36:38.002Z,27.16
2022-08-28T09:37:41.513Z,26.66
2022-08-28T09:38:43.592Z,26.34
2022-08-28T09:39:48.893Z,26.50
2022-08-28T09:41:26.926Z,26.53
2022-08-28T09:42:48.129Z,27.56
2022-08-28T09:43:50.308Z,28.12
2022-08-28T09:44:56.804Z,27.91
2022-08-28T09:46:03.346Z,27.97
2022-08-28T09:47:05.538Z,28.27
2022-08-28T09:48:21.692Z,27.20
2022-08-28T09:49:30.698Z,26.08
2022-08-28T09:50:42.897Z,26.69
2022-08-28T09:51:48.122Z,26.67
2022-08-28T09:52:52.400Z,26.30
2022-08-28T09:53:59.905Z,25.80
2022-08-28T09:55:02.741Z,25.92
2022-08-28T09:56:34.499Z,25.78
2022-08-28T09:57:36.994Z,26.47
2022-08-28T09:59:07.067Z,25.49
2022-08-28T10:00:10.728Z,25.51
2022-08-28T10:01:27.373Z,25.53
2022-08-28T10:02:43.853Z,25.77
2022-08-28T10:04:04.508Z,25.61
2022-08-28T10:05:16.711Z,25.75
2022-08-28T10:06:32.118Z,25.05
2022-08-28T10:07:48.872Z,25.54
2022-08-28T10:09:08.994Z,24.52
2022-08-28T10:10:39.620Z,24.34
2022-08-28T10:11:51.077Z,23.61
2022-08-28T10:13:16.988Z,24.23
2022-08-28T10:14:39.231Z,24.06
2022-08-28T10:16:03.787Z,24.08
2022-08-28T10:17:06.609Z,24.12
2022-08-28T10:18:43.780Z,24.30
2022-08-28T10:20:17.674Z,23.72
2022-08-28T10:21:38.296Z,23.78
2022-08-28T10:22:57.262Z,23.61
2022-08-28T10:24:15.172Z,23.75
2022-08-28T10:25:45.509Z,23.20
2022-08-28T10:27:08.523Z,23.05
2022-08-28T10:28:40.956Z,23.11
2022-08-28T10:29:48.396Z,22.59
2022-08-28T10:31:11.334Z,22.64
2022-08-28T10:32:20.974Z,22.75
2022-08-28T10:33:44.931Z,22.37
2022-08-28T10:35:18.523Z,22.52
2022-08-28T10:36:33.233Z,22.42
2022-08-28T10:37:51.699Z,22.54
2022-08-28T10:39:30.594Z,22.14
2022-08-28T10:40:44.766Z,21.70
2022-08-28T10:42:07.438Z,21.93
2022-08-28T10:43:30.544Z,21.74
2022-08-28T10:44:52.643Z,21.64
2022-08-28T10:45:55.405Z,22.14
2022-08-28T10:46:59.604Z,22.29
2022-08-28T10:48:10.686Z,22.15
2022-08-28T10:49:34.912Z,22.10
2022-08-28T10:50:47.354Z,22.21
2022-08-28T10:51:57.340Z,22.07
2022-08-28T10:53:16.943Z,22.14
2022-08-28T10:54:35.099Z,22.14
2022-08-28T10:55:58.557Z,22.26
2022-08-28T10:57:39.407Z,22.13
2022-08-28T10:58:42.477Z,22.46
2022-08-28T10:59:49.171Z,22.14
2022-08-28T11:01:01.525Z,22.46
2022-08-28T11:02:07.216Z,22.44
2022-08-28T11:03:32.954Z,22.40
2022-08-28T11:04:35.983Z,22.44
2022-08-28T11:05:53.872Z,22.56
2022-08-28T11:07:05.841Z,22.55
2022-08-28T11:08:23.071Z,22.22
2022-08-28T11:09:46.995Z,22.15
2022-08-28T11:10:53.873Z,21.80
2022-08-28T11:12:10.476Z,20.64
2022-08-28T11:13:13.554Z,21.15
2022-08-28T11:14:35.710Z,21.17
2022-08-28T11:15:53.660Z,21.57
2022-08-28T11:17:01.846Z,21.63
2022-08-28T11:18:16.026Z,21.55
2022-08-28T11:19:29.796Z,21.06
2022-08-28T11:20:32.660Z,21.21
2022-08-28T11:21:48.011Z,21.33
2022-08-28T11:22:53.480Z,21.19
2022-08-28T11:24:08.420Z,21.07
2022-08-28T11:25:17.388Z,21.10
2022-08-28T11:26:34.155Z,20.84
2022-08-28T11:27:38.260Z,20.48
2022-08-28T11:28:48.127Z,20.79
2022-08-28T11:30:08.166Z,21.13
2022-08-28T11:31:16.316Z,20.94
2022-08-28T11:33:53.363Z,20.89
2022-08-28T11:35:03.457Z,21.35
2022-08-28T11:36:33.054Z,21.32
2022-08-28T11:37:44.246Z,21.44
2022-08-28T11:38:53.432Z,21.52
2022-08-28T11:40:39.335Z,21.64
2022-08-28T11:42:10.707Z,22.00
2022-08-28T11:43:16.182Z,21.86
2022-08-28T11:44:28.548Z,21.85
2022-08-28T11:45:46.504Z,22.00
2022-08-28T11:46:51.950Z,21.89
2022-08-28T11:47:56.844Z,22.15
2022-08-28T11:49:02.457Z,21.76
2022-08-28T11:50:22.127Z,21.91
2022-08-28T11:51:47.162Z,22.10
2022-08-28T11:53:08.037Z,21.98
2022-08-28T11:54:38.067Z,21.92
2022-08-28T11:56:01.012Z,21.99
2022-08-28T11:57:15.262Z,21.95
2022-08-28T11:58:39.793Z,21.97
2022-08-28T12:00:04.513Z,22.16
2022-08-28T12:01:13.071Z,22.31
2022-08-28T12:02:40.010Z,22.13
2022-08-28T12:04:06.111Z,22.40
2022-08-28T12:05:35.335Z,22.69
2022-08-28T12:06:49.400Z,22.77
2022-08-28T12:07:52.054Z,22.99
2022-08-28T12:08:58.902Z,22.88
2022-08-28T12:10:05.104Z,22.95
2022-08-28T12:11:07.620Z,22.82
2022-08-28T12:12:22.822Z,22.84
2022-08-28T12:13:49.740Z,22.87
2022-08-28T12:14:59.276Z,22.93
2022-08-28T12:16:08.255Z,22.91
2022-08-28T12:17:17.191Z,22.86
2022-08-28T12:18:42.906Z,23.00
2022-08-28T12:19:55.267Z,22.97
2022-08-28T12:21:02.607Z,23.02
2022-08-28T12:22:07.010Z,22.87
2022-08-28T12:23:35.523Z,23.28
2022-08-28T12:24:49.380Z,23.20
2022-08-28T12:26:16.271Z,23.49
2022-08-28T12:27:18.948Z,23.17
2022-08-28T12:29:05.687Z,22.17
2022-08-28T12:30:08.402Z,22.26
2022-08-28T12:32:13.032Z,20.96
2022-08-28T12:33:41.375Z,21.26
2022-08-28T12:34:47.985Z,21.62
2022-08-28T12:35:50.531Z,21.55
2022-08-28T12:36:58.799Z,21.83
2022-08-28T12:38:06.748Z,21.38
2022-08-28T12:39:18.411Z,21.49
2022-08-28T12:40:20.605Z,21.57
2022-08-28T12:41:26.892Z,21.36
2022-08-28T12:42:38.712Z,21.69
2022-08-28T12:43:46.803Z,21.37
2022-08-28T12:44:49.530Z,21.79
2022-08-28T12:46:19.535Z,21.91
2022-08-28T12:47:23.876Z,22.33
2022-08-28T12:48:33.696Z,22.37
2022-08-28T12:49:38.137Z,22.55
2022-08-28T12:50:41.403Z,22.52
2022-08-28T12:51:44.891Z,22.48
2022-08-28T12:52:55.545Z,22.73
2022-08-28T12:54:00.961Z,22.18
2022-08-28T12:55:05.007Z,22.68
2022-08-28T12:56:10.255Z,22.06
2022-08-28T12:57:23.909Z,21.78
2022-08-28T12:58:36.216Z,21.87
2022-08-28T12:59:47.418Z,21.79
2022-08-28T13:01:03.551Z,21.68
2022-08-28T13:02:19.410Z,21.30
2022-08-28T13:03:22.056Z,21.45
2022-08-28T13:04:39.963Z,21.52
2022-08-28T13:05:42.624Z,21.50
2022-08-28T13:06:45.259Z,21.60
2022-08-28T13:07:51.971Z,21.97
2022-08-28T13:09:00.771Z,22.10
2022-08-28T13:10:21.043Z,22.08
2022-08-28T13:11:23.228Z,22.16
2022-08-28T13:12:54.276Z,22.50
2022-08-28T13:14:01.722Z,22.77
2022-08-28T13:15:05.928Z,22.96
2022-08-28T13:16:13.825Z,23.02
2022-08-28T13:17:44.966Z,23.05
2022-08-28T13:19:05.171Z,23.11
2022-08-28T13:20:08.383Z,23.10
2022-08-28T13:21:15.013Z,23.41
2022-08-28T13:22:35.921Z,22.93
2022-08-28T13:23:38.273Z,23.15
2022-08-28T13:24:46.694Z,23.01
2022-08-28T13:25:48.847Z,22.86
2022-08-28T13:27:03.119Z,23.18
2022-08-28T13:28:14.025Z,23.13
2022-08-28T13:29:22.141Z,23.01
2022-08-28T13:30:35.692Z,22.93
2022-08-28T13:31:42.884Z,23.20
2022-08-28T13:33:02.395Z,22.68
2022-08-28T13:34:13.436Z,22.86
2022-08-28T13:35:18.829Z,22.89
2022-08-28T13:36:25.088Z,22.74
2022-08-28T13:37:53.507Z,22.98
2022-08-28T13:38:55.898Z,22.99
2022-08-28T13:39:58.195Z,22.86
2022-08-28T13:41:04.753Z,23.10
2022-08-28T13:42:16.600Z,22.98
2022-08-28T13:43:19.971Z,23.03
2022-08-28T13:44:30.055Z,22.96
2022-08-28T13:45:42.542Z,22.93
2022-08-28T13:46:45.717Z,23.01
2022-08-28T13:47:47.839Z,23.31
2022-08-28T13:48:50.286Z,23.15
2022-08-28T13:49:52.428Z,23.20
2022-08-28T13:51:00.214Z,23.25
2022-08-28T13:52:06.370Z,23.80
2022-08-28T13:53:09.768Z,23.93
2022-08-28T13:54:13.190Z,24.23
2022-08-28T13:55:16.543Z,23.72
2022-08-28T13:56:19.096Z,23.76
2022-08-28T13:57:26.004Z,23.94
2022-08-28T13:58:30.514Z,24.10
2022-08-28T13:59:33.089Z,23.91
2022-08-28T14:00:43.098Z,23.90
2022-08-28T14:02:05.251Z,23.71
2022-08-28T14:03:26.612Z,23.43
2022-08-28T14:04:29.104Z,23.71
2022-08-28T14:05:34.819Z,23.85
2022-08-28T14:06:37.061Z,24.45
2022-08-28T14:07:39.835Z,24.51
2022-08-28T14:08:47.652Z,24.50
2022-08-28T14:09:54.058Z,24.84
2022-08-28T14:10:58.946Z,25.32
2022-08-28T14:12:01.563Z,25.57
2022-08-28T14:13:03.728Z,24.91
2022-08-28T14:14:06.329Z,25.35
2022-08-28T14:15:08.787Z,25.18
2022-08-28T14:16:13.083Z,25.39
2022-08-28T14:17:17.852Z,25.28
2022-08-28T14:18:20.522Z,25.42
2022-08-28T14:19:22.894Z,25.71
2022-08-28T14:20:25.175Z,25.90
2022-08-28T14:21:27.321Z,25.71
2022-08-28T14:22:37.009Z,26.16
2022-08-28T14:23:41.715Z,26.29
2022-08-28T14:24:44.060Z,26.56
2022-08-28T14:25:47.517Z,26.74
2022-08-28T14:26:50.296Z,26.85
2022-08-28T14:27:52.547Z,27.06
2022-08-28T14:29:03.323Z,26.99
2022-08-28T14:30:08.742Z,26.96
2022-08-28T14:31:14.829Z,27.40
2022-08-28T14:32:17.303Z,27.60
2022-08-28T14:33:25.617Z,27.54
2022-08-28T14:34:28.651Z,27.49
2022-08-28T14:35:31.400Z,27.58
2022-08-28T14:36:34.188Z,27.61
2022-08-28T14:37:36.668Z,27.26